Time;durP1;ratioP1;P1;durP2;ratioP2;P2;SDS_P1;SDS_P2;PMS_P1;PMS_P2;Temp;Humidity;BMP_temperature;BMP_pressure;BME280_temperature;BME280_humidity;BME280_pressure;Samples;Min_cycle;Max_cycle;Signal;HPM_P1;HPM_P2
2022/06/06 00:03:12;;;;;;;3.88;1.63;;;;;;;19.94;61.78;97556.16;10059961;29;20101;-78
2022/06/06 00:08:32;;;;;;;4.00;1.45;;;;;;;19.97;62.10;97551.97;10059566;29;20053;-79
2022/06/06 00:13:53;;;;;;;3.85;1.90;;;;;;;19.91;62.56;97560.31;10046698;29;20105;-78
2022/06/06 00:19:13;;;;;;;3.00;1.40;;;;;;;19.78;63.65;97558.50;10059125;29;20053;-78
2022/06/06 00:24:34;;;;;;;2.72;1.63;;;;;;;19.79;63.86;97571.31;10059245;29;20083;-78
2022/06/06 00:29:55;;;;;;;3.97;2.00;;;;;;;19.79;63.98;97582.63;10058881;29;20052;-79
2022/06/06 00:35:16;;;;;;;4.35;1.60;;;;;;;19.78;64.27;97593.22;10058990;29;20049;-76
2022/06/06 00:40:37;;;;;;;3.58;1.65;;;;;;;19.75;64.58;97591.72;10084716;29;20064;-78
2022/06/06 00:45:58;;;;;;;2.65;1.55;;;;;;;19.78;65.01;97572.69;10084023;29;20444;-78
2022/06/06 00:51:18;;;;;;;3.65;1.60;;;;;;;19.71;65.39;97566.84;10058411;29;20068;-78
2022/06/06 00:56:41;;;;;;;2.92;1.45;;;;;;;19.70;65.23;97561.84;10083657;29;20060;-75
2022/06/06 01:02:02;;;;;;;2.37;1.50;;;;;;;19.70;65.27;97567.53;10057114;29;20083;-78
2022/06/06 01:07:23;;;;;;;1.95;1.30;;;;;;;19.70;65.05;97571.06;10057753;29;20053;-78
2022/06/06 01:12:44;;;;;;;3.45;1.30;;;;;;;19.65;65.84;97578.00;10057738;29;20056;-78
2022/06/06 01:18:11;;;;;;;1.85;1.05;;;;;;;19.71;65.48;97580.28;10070862;29;20061;-78
2022/06/06 01:24:16;;;;;;;2.30;1.02;;;;;;;19.76;65.95;97590.34;10070604;29;20057;-79
2022/06/06 01:29:50;;;;;;;1.83;0.90;;;;;;;19.65;65.49;97599.91;10070327;29;20068;-79
2022/06/06 01:35:11;;;;;;;2.40;1.27;;;;;;;19.56;65.86;97584.78;10070073;29;20053;-79
2022/06/06 01:40:44;;;;;;;4.38;1.40;;;;;;;19.55;66.19;97589.00;10057100;29;20049;-79
2022/06/06 01:46:20;;;;;;;4.93;1.20;;;;;;;19.51;66.72;97605.16;10071123;29;20054;-79
2022/06/06 01:51:41;;;;;;;3.97;1.40;;;;;;;19.47;66.66;97610.66;10070147;29;20060;-79
2022/06/06 01:57:02;;;;;;;4.30;1.23;;;;;;;19.40;67.12;97635.25;10069698;29;20064;-78
2022/06/06 02:02:23;;;;;;;2.35;1.40;;;;;;;19.21;66.64;97642.44;10056979;29;20095;-79
2022/06/06 02:07:43;;;;;;;2.38;1.30;;;;;;;19.16;67.74;97652.16;10043962;29;20061;-79
2022/06/06 02:13:04;;;;;;;3.03;1.30;;;;;;;19.22;67.96;97660.13;10060389;29;20437;-78
2022/06/06 02:18:24;;;;;;;3.47;1.40;;;;;;;19.24;67.96;97675.06;10050923;29;20187;-78
2022/06/06 02:23:48;;;;;;;2.83;1.42;;;;;;;19.32;68.63;97680.25;10076158;29;20064;-78
2022/06/06 02:29:09;;;;;;;5.75;1.70;;;;;;;19.17;68.34;97688.28;10089064;29;20526;-78
2022/06/06 02:34:29;;;;;;;4.88;1.70;;;;;;;19.06;69.22;97688.59;10075876;29;20061;-80
2022/06/06 02:39:50;;;;;;;2.50;1.80;;;;;;;19.12;69.63;97683.16;10062640;29;20484;-78
2022/06/06 02:45:12;;;;;;;2.50;1.52;;;;;;;19.15;69.98;97682.56;10075484;29;20045;-78
2022/06/06 02:50:33;;;;;;;3.70;1.90;;;;;;;19.11;69.81;97682.44;10075483;29;20049;-78
2022/06/06 02:55:53;;;;;;;3.83;1.80;;;;;;;19.04;70.16;97685.72;10062226;29;20049;-78
2022/06/06 03:01:14;;;;;;;4.55;1.75;;;;;;;19.04;70.69;97680.78;10061641;29;20049;-78
2022/06/06 03:07:10;;;;;;;2.45;1.80;;;;;;;19.06;70.77;97680.84;10061944;29;20053;-78
2022/06/06 03:12:44;;;;;;;5.43;2.30;;;;;;;19.06;71.50;97678.00;10074388;29;20052;-79
2022/06/06 03:24:13;;;;;;;4.82;2.10;;;;;;;19.05;71.33;97696.38;10080248;29;20052;-77
2022/06/06 03:29:48;;;;;;;4.90;1.98;;;;;;;19.04;71.63;97700.59;10074674;29;20057;-78
2022/06/06 03:35:39;;;;;;;3.30;2.10;;;;;;;19.08;71.96;97708.47;10062163;29;20125;-77
2022/06/06 03:41:23;;;;;;;6.03;2.33;;;;;;;19.10;72.20;97717.03;10086273;29;20049;-77
2022/06/06 03:47:06;;;;;;;4.78;1.83;;;;;;;19.16;71.97;97729.28;10075703;29;20117;-79
2022/06/06 03:52:36;;;;;;;2.80;1.90;;;;;;;19.19;71.65;97729.34;10073415;29;20576;-78
2022/06/06 03:57:56;;;;;;;3.45;1.63;;;;;;;19.23;71.80;97735.88;10072852;29;20060;-77
2022/06/06 04:03:17;;;;;;;3.00;1.55;;;;;;;19.27;71.83;97736.00;10072370;29;20064;-79
2022/06/06 04:08:37;;;;;;;2.95;1.60;;;;;;;19.33;71.33;97746.81;10059772;29;20496;-79
2022/06/06 04:14:16;;;;;;;1.85;1.33;;;;;;;19.38;71.00;97742.72;10059741;29;20492;-78
2022/06/06 04:19:52;;;;;;;4.43;2.10;;;;;;;19.47;71.20;97747.25;10084814;29;20080;-77
2022/06/06 04:25:24;;;;;;;5.20;1.90;;;;;;;19.56;70.83;97749.00;10071719;29;20056;-77
2022/06/06 04:31:19;;;;;;;2.15;1.58;;;;;;;19.66;70.97;97734.44;10070362;29;20056;-78
2022/06/06 04:36:45;;;;;;;2.88;2.05;;;;;;;19.77;70.71;97743.97;10096371;29;20139;-77
2022/06/06 04:42:27;;;;;;;4.32;1.60;;;;;;;19.73;70.67;97755.91;10071851;29;20056;-77
2022/06/06 04:47:48;;;;;;;3.92;1.65;;;;;;;19.59;70.42;97753.34;10071038;29;20409;-74
2022/06/06 04:53:11;;;;;;;2.53;1.35;;;;;;;19.54;70.63;97751.00;10087069;29;20506;-74
2022/06/06 04:58:32;;;;;;;2.80;1.48;;;;;;;19.57;70.62;97756.09;10061889;29;20084;-74
2022/06/06 05:03:53;;;;;;;3.90;1.92;;;;;;;19.59;70.57;97764.69;10057856;29;20055;-75
2022/06/06 05:09:20;;;;;;;3.85;2.03;;;;;;;19.63;69.96;97761.97;10087328;29;20052;-76
2022/06/06 05:14:56;;;;;;;4.68;1.90;;;;;;;19.63;70.08;97761.97;10095771;29;20494;-75
2022/06/06 05:20:51;;;;;;;2.65;1.48;;;;;;;19.91;69.55;97769.94;10111445;29;20063;-74
2022/06/06 05:26:33;;;;;;;4.20;1.70;;;;;;;20.21;68.82;97770.84;10111113;29;20199;-74
2022/06/06 05:32:22;;;;;;;3.30;1.30;;;;;;;20.48;68.13;97780.16;10121324;29;20424;-83
2022/06/06 05:38:07;;;;;;;2.22;1.00;;;;;;;20.81;67.46;97778.97;10135367;29;20060;-80
2022/06/06 05:43:33;;;;;;;2.77;1.27;;;;;;;20.93;66.33;97778.56;10110011;29;20057;-76
2022/06/06 05:49:26;;;;;;;3.30;0.93;;;;;;;20.88;66.24;97791.94;10100970;29;20096;-81
2022/06/06 05:54:54;;;;;;;2.65;0.80;;;;;;;21.01;65.74;97804.34;10101181;29;20140;-78
2022/06/06 06:00:19;;;;;;;3.88;0.88;;;;;;;21.35;65.53;97805.31;10115340;29;20089;-78
2022/06/06 06:05:53;;;;;;;3.97;0.77;;;;;;;21.88;63.62;97805.88;10089496;29;20556;-77
2022/06/06 06:11:52;;;;;;;2.17;0.90;;;;;;;21.82;61.85;97814.28;10067805;29;20143;-76
2022/06/06 06:17:12;;;;;;;3.88;0.82;;;;;;;21.30;62.80;97815.09;10109940;29;20064;-76
2022/06/06 06:22:42;;;;;;;3.10;0.57;;;;;;;21.27;63.01;97833.47;10101957;29;20456;-76
2022/06/06 06:28:10;;;;;;;1.98;0.43;;;;;;;21.14;62.66;97826.00;10101861;29;20048;-74
2022/06/06 06:33:38;;;;;;;1.52;0.40;;;;;;;20.98;62.36;97828.38;10100291;29;20105;-75
2022/06/06 06:39:13;;;;;;;2.70;0.50;;;;;;;21.16;61.74;97843.06;10097145;29;20053;-73
2022/06/06 06:44:40;;;;;;;2.80;0.40;;;;;;;21.38;61.45;97843.69;10028771;29;20542;-74
2022/06/06 06:50:06;;;;;;;3.15;0.43;;;;;;;21.73;60.19;97844.59;10079086;29;20084;-72
2022/06/06 06:55:45;;;;;;;1.05;0.32;;;;;;;21.83;59.21;97844.84;10024848;29;20473;-72
2022/06/06 07:01:12;;;;;;;1.38;0.30;;;;;;;22.02;58.72;97853.84;10048444;29;20065;-72
2022/06/06 07:12:46;;;;;;;2.35;0.30;;;;;;;22.22;57.74;97860.03;10048903;29;20106;-72
2022/06/06 07:18:07;;;;;;;2.35;0.30;;;;;;;22.84;56.94;97869.25;10048811;29;20068;-73
2022/06/06 07:23:29;;;;;;;1.98;0.30;;;;;;;24.98;58.25;97866.47;10048892;29;20057;-73
2022/06/06 07:28:50;;;;;;;1.38;0.30;;;;;;;28.42;49.74;97860.69;10035627;29;20057;-74
2022/06/06 07:34:20;;;;;;;0.75;0.28;;;;;;;37.40;42.08;97868.75;10062142;29;20492;-75
2022/06/06 07:39:50;;;;;;;1.20;0.20;;;;;;;43.05;27.62;97866.41;10048136;29;20068;-75
2022/06/06 07:45:14;;;;;;;3.00;0.40;;;;;;;40.72;29.08;97866.31;10047861;29;20050;-76
2022/06/06 07:50:40;;;;;;;2.65;0.50;;;;;;;47.40;20.45;97875.53;10034743;29;20287;-76
2022/06/06 07:56:09;;;;;;;1.98;0.30;;;;;;;51.35;15.54;97882.25;10034530;29;20137;-78
2022/06/06 08:01:40;;;;;;;4.20;0.30;;;;;;;50.55;11.82;97880.16;10034375;29;20049;-76
2022/06/06 08:07:21;;;;;;;3.00;0.30;;;;;;;49.01;12.07;97871.03;10034568;29;20061;-77
2022/06/06 08:12:51;;;;;;;7.28;0.57;;;;;;;48.09;14.00;97863.31;10046767;29;20484;-78
2022/06/06 08:18:22;;;;;;;1.50;0.30;;;;;;;53.37;10.07;97859.56;10021554;29;20416;-78
2022/06/06 08:23:50;;;;;;;0.93;0.30;;;;;;;50.33;10.35;97858.50;10047380;29;20753;-78
2022/06/06 08:29:11;;;;;;;1.65;0.35;;;;;;;52.49;10.60;97870.25;10046274;29;20450;-79
2022/06/06 08:34:33;;;;;;;1.52;0.30;;;;;;;55.30;8.37;97866.81;10020609;29;20060;-79
2022/06/06 08:40:28;;;;;;;13.57;0.88;;;;;;;49.14;9.96;97864.75;10033493;29;20057;-78
2022/06/06 08:45:58;;;;;;;3.78;0.22;;;;;;;48.19;10.52;97859.50;10052420;29;20054;-77
2022/06/06 08:51:33;;;;;;;4.63;0.40;;;;;;;43.26;12.97;97862.88;10086067;29;20049;-78
2022/06/06 08:57:13;;;;;;;0.85;0.20;;;;;;;40.91;16.28;97860.25;10069946;29;20053;-76
2022/06/06 09:02:54;;;;;;;5.38;0.40;;;;;;;48.49;13.26;97858.50;10075022;29;20056;-78
2022/06/06 09:08:45;;;;;;;1.90;0.30;;;;;;;44.43;12.49;97850.91;10121661;29;20104;-78
2022/06/06 09:14:18;;;;;;;1.70;0.32;;;;;;;37.77;17.00;97850.59;10121202;29;20056;-80
2022/06/06 09:20:09;;;;;;;4.07;0.40;;;;;;;35.78;20.26;97853.19;10121726;29;20057;-77
2022/06/06 09:25:42;;;;;;;2.67;0.20;;;;;;;39.53;19.98;97852.47;10108583;29;20419;-77
2022/06/06 09:31:17;;;;;;;1.02;0.20;;;;;;;42.45;15.30;97839.16;10096672;29;20411;-77
2022/06/06 09:37:07;;;;;;;2.25;0.35;;;;;;;38.07;17.18;97848.63;10108354;29;20155;-77
2022/06/06 09:43:02;;;;;;;2.20;0.28;;;;;;;43.53;17.09;97853.13;10124426;29;20084;-77
2022/06/06 09:49:00;;;;;;;1.30;0.30;;;;;;;44.50;12.87;97854.81;10110729;29;20052;-76
2022/06/06 10:00:27;;;;;;;1.77;0.55;;;;;;;39.47;16.66;97833.75;10108019;29;20109;-78
2022/06/06 10:06:16;;;;;;;1.15;0.20;;;;;;;38.03;18.06;97831.34;10067831;29;20535;-77
2022/06/06 10:11:43;;;;;;;1.20;0.30;;;;;;;34.65;20.12;97836.94;10078639;29;20049;-79
2022/06/06 10:17:11;;;;;;;3.17;0.60;;;;;;;32.47;21.81;97833.09;10079223;29;20484;-80
2022/06/06 10:22:50;;;;;;;2.35;0.30;;;;;;;30.71;24.58;97842.84;10066500;29;20492;-83
2022/06/06 10:28:38;;;;;;;2.30;0.30;;;;;;;38.75;22.59;97843.63;10079492;29;20057;-81
2022/06/06 10:34:11;;;;;;;0.70;0.27;;;;;;;46.76;14.30;97832.53;10070157;29;20105;-82
2022/06/06 10:39:47;;;;;;;1.55;0.30;;;;;;;41.12;14.75;97840.09;10085005;29;20457;-81
2022/06/06 10:45:27;;;;;;;2.35;0.38;;;;;;;36.37;19.36;97833.88;10072606;29;20136;-81
2022/06/06 10:51:39;;;;;;;2.75;0.30;;;;;;;35.13;20.95;97823.28;10075501;29;20060;-83
2022/06/06 10:57:23;;;;;;;2.20;0.20;;;;;;;34.33;20.89;97839.19;10075915;29;20060;-79
2022/06/06 11:03:12;;;;;;;2.00;0.30;;;;;;;35.69;21.08;97831.72;10077430;29;20093;-79
2022/06/06 11:09:12;;;;;;;2.03;0.40;;;;;;;34.93;21.80;97833.25;10062173;29;20053;-79
2022/06/06 11:14:39;;;;;;;0.65;0.38;;;;;;;34.49;21.96;97832.28;10100721;29;20431;-79
2022/06/06 11:20:39;;;;;;;0.93;0.30;;;;;;;34.27;23.29;97830.66;10060931;29;20404;-79
2022/06/06 11:26:50;;;;;;;0.70;0.30;;;;;;;33.75;23.17;97812.38;10068392;29;20495;-78
2022/06/06 11:32:35;;;;;;;2.57;0.40;;;;;;;33.14;24.17;97810.84;10080932;29;20512;-79
2022/06/06 11:38:18;;;;;;;3.13;0.40;;;;;;;32.86;24.88;97818.66;10100554;29;20484;-78
2022/06/06 11:44:04;;;;;;;2.60;0.45;;;;;;;32.12;25.71;97804.81;10099953;29;20053;-79
2022/06/06 11:49:44;;;;;;;1.40;0.40;;;;;;;31.57;25.86;97802.81;10100167;29;20124;-79
2022/06/06 11:55:15;;;;;;;2.42;0.60;;;;;;;32.34;25.95;97792.19;10085709;29;20097;-78
2022/06/06 12:00:56;;;;;;;3.20;0.40;;;;;;;31.71;26.44;97781.69;10073752;29;20045;-79
2022/06/06 12:06:51;;;;;;;3.10;0.40;;;;;;;31.43;25.71;97788.59;10059462;29;20136;-82
2022/06/06 12:12:42;;;;;;;1.52;0.50;;;;;;;31.15;26.46;97783.91;10083238;29;20060;-79
2022/06/06 12:18:17;;;;;;;1.00;0.40;;;;;;;30.96;26.03;97768.31;10075986;29;20045;-80
2022/06/06 12:24:28;;;;;;;2.50;0.55;;;;;;;30.67;26.42;97762.22;10069337;29;20173;-81
2022/06/06 12:30:17;;;;;;;1.80;0.50;;;;;;;30.43;26.23;97771.84;10053029;29;20061;-79
2022/06/06 12:36:14;;;;;;;1.20;0.68;;;;;;;30.51;25.91;97771.03;10081572;29;20282;-81
2022/06/06 12:41:56;;;;;;;1.67;0.50;;;;;;;30.34;26.99;97773.38;10079434;29;20049;-78
2022/06/06 12:47:52;;;;;;;2.35;0.40;;;;;;;30.48;26.39;97768.16;10067769;29;20507;-78
2022/06/06 12:53:15;;;;;;;1.20;0.40;;;;;;;30.43;26.50;97774.72;10079339;29;20053;-80
2022/06/06 12:58:46;;;;;;;1.95;0.50;;;;;;;30.33;26.58;97766.19;10093109;29;20059;-76
2022/06/06 13:04:34;;;;;;;0.93;0.50;;;;;;;29.88;26.71;97755.78;10063601;29;20181;-78
2022/06/06 13:10:40;;;;;;;1.55;0.50;;;;;;;29.78;27.53;97755.88;10080545;29;20132;-76
2022/06/06 13:16:13;;;;;;;2.00;0.50;;;;;;;30.34;27.42;97751.06;10001618;29;20464;-76
2022/06/06 13:21:53;;;;;;;5.15;0.68;;;;;;;30.88;27.45;97740.31;10083245;29;20053;-77
2022/06/06 13:27:18;;;;;;;1.10;0.38;;;;;;;30.66;27.02;97746.38;10072291;29;20049;-76
2022/06/06 13:33:06;;;;;;;1.65;0.40;;;;;;;30.44;27.20;97736.53;10069853;29;20053;-76
2022/06/06 13:38:37;;;;;;;2.63;0.60;;;;;;;30.89;27.11;97733.13;10083049;29;20076;-76
2022/06/06 13:44:02;;;;;;;1.52;0.55;;;;;;;31.08;25.87;97735.75;10081422;29;20079;-76
2022/06/06 13:49:31;;;;;;;2.25;0.57;;;;;;;30.71;26.64;97734.09;10068271;29;20053;-77
2022/06/06 13:54:51;;;;;;;3.17;0.57;;;;;;;30.60;26.92;97734.94;10068922;29;20045;-76
2022/06/06 14:00:19;;;;;;;1.30;0.50;;;;;;;30.73;27.42;97736.22;10068653;29;20059;-78
2022/06/06 14:06:00;;;;;;;2.83;0.50;;;;;;;30.99;26.63;97729.41;10042954;29;20145;-78
2022/06/06 14:11:46;;;;;;;1.83;0.68;;;;;;;30.87;26.36;97723.78;10048773;29;20567;-78
2022/06/06 14:17:08;;;;;;;1.35;0.57;;;;;;;30.08;26.54;97734.06;10062465;29;20488;-76
2022/06/06 14:22:34;;;;;;;1.65;0.60;;;;;;;28.94;27.93;97711.91;10048829;29;20160;-79
2022/06/06 14:28:20;;;;;;;3.78;0.52;;;;;;;28.90;28.60;97701.16;10018878;29;20062;-79
2022/06/06 14:33:41;;;;;;;1.83;0.50;;;;;;;28.57;28.03;97717.81;10000645;29;20061;-77
2022/06/06 14:39:03;;;;;;;2.17;0.40;;;;;;;28.67;28.05;97702.72;10035335;29;20061;-74
2022/06/06 14:44:28;;;;;;;;;;;;;;;28.55;28.09;97702.75;10035817;29;20049;-73
2022/06/06 14:53:11;;;;;;;8.07;0.80;;;;;;;28.34;28.03;97702.13;10587954;27;1548724;-74
2022/06/06 14:58:33;;;;;;;4.00;0.43;;;;;;;28.38;28.05;97693.50;10573127;28;20049;-73
2022/06/06 15:03:55;;;;;;;;;;;;;;;28.44;27.78;97704.94;10554731;28;20134;-75
2022/06/06 15:09:36;;;;;;;1.00;0.40;;;;;;;28.26;28.00;97696.38;10544707;28;19920;-74
2022/06/06 15:15:02;;;;;;;2.22;0.40;;;;;;;28.27;28.46;97692.78;10558336;28;20047;-74
2022/06/06 15:20:28;;;;;;;1.95;0.52;;;;;;;28.27;28.17;97681.28;10530295;28;20047;-75
2022/06/06 15:26:00;;;;;;;1.45;0.40;;;;;;;28.15;28.45;97682.06;10515651;28;20117;-81
2022/06/06 15:31:50;;;;;;;1.83;0.60;;;;;;;27.97;28.85;97672.78;10518738;28;20040;-81
2022/06/06 15:37:20;;;;;;;1.85;0.60;;;;;;;27.75;28.93;97653.47;10506853;28;20274;-76
2022/06/06 15:42:45;;;;;;;1.23;0.60;;;;;;;27.47;29.70;97660.66;10572955;28;20054;-76
2022/06/06 15:48:14;;;;;;;2.00;0.82;;;;;;;27.44;29.51;97656.38;10573086;28;20481;-75
2022/06/06 15:53:57;;;;;;;2.15;0.52;;;;;;;27.05;30.58;97644.19;10558591;28;20061;-77
2022/06/06 15:59:48;;;;;;;2.78;0.80;;;;;;;26.74;31.05;97654.88;10544475;28;20047;-78
2022/06/06 16:05:23;;;;;;;3.40;0.50;;;;;;;26.77;31.31;97648.41;10532185;28;20060;-81
2022/06/06 16:10:51;;;;;;;3.90;0.80;;;;;;;26.97;30.80;97644.88;10502356;28;20390;-80
2022/06/06 16:16:29;;;;;;;3.95;0.50;;;;;;;27.14;30.61;97642.78;10502830;28;20048;-77
2022/06/06 16:22:01;;;;;;;3.15;0.60;;;;;;;27.15;29.61;97643.47;10529860;28;20044;-74
2022/06/06 16:27:29;;;;;;;4.80;0.65;;;;;;;27.05;29.35;97642.03;10493376;28;20044;-79
2022/06/06 16:32:56;;;;;;;3.03;0.75;;;;;;;27.19;28.61;97649.19;10515304;28;20052;-76
2022/06/06 16:38:23;;;;;;;1.52;0.50;;;;;;;27.33;28.99;97649.22;10544132;28;20035;-77
2022/06/06 16:50:02;;;;;;;1.08;0.55;;;;;;;27.07;29.16;97641.31;10520602;28;20130;-85
2022/06/06 16:55:48;;;;;;;1.02;0.40;;;;;;;26.68;29.08;97640.53;10500487;28;20068;-81
2022/06/06 17:01:43;;;;;;;2.88;1.08;;;;;;;26.45;29.38;97649.06;10513658;28;20398;-87
2022/06/06 17:12:50;;;;;;;1.15;0.52;;;;;;;26.42;30.58;97650.47;10504104;28;20074;-90
2022/06/06 17:18:34;;;;;;;1.27;0.60;;;;;;;26.27;31.55;97657.56;10485606;28;20040;-81
2022/06/06 17:24:01;;;;;;;2.90;0.60;;;;;;;26.22;31.97;97638.91;10541445;28;20067;-89
2022/06/06 17:30:00;;;;;;;2.13;0.73;;;;;;;26.13;32.85;97648.91;10513765;28;20047;-88
2022/06/06 17:35:48;;;;;;;1.63;0.45;;;;;;;26.17;32.80;97661.09;10544069;28;20047;-92
2022/06/06 17:41:23;;;;;;;2.60;0.50;;;;;;;26.07;32.91;97660.31;10526157;28;20050;-79
2022/06/06 17:46:49;;;;;;;1.90;0.60;;;;;;;25.85;33.39;97660.91;10524872;28;20161;-79
2022/06/06 17:52:29;;;;;;;1.35;0.50;;;;;;;25.65;33.67;97667.91;10496327;28;20451;-80
2022/06/06 17:58:17;;;;;;;1.98;0.70;;;;;;;25.57;33.77;97667.84;10526009;28;20044;-77
2022/06/06 18:03:58;;;;;;;1.60;0.60;;;;;;;25.49;33.67;97672.81;10487055;28;20490;-77
2022/06/06 18:09:25;;;;;;;3.35;0.60;;;;;;;25.34;33.78;97664.09;10514655;28;20036;-87
2022/06/06 18:15:07;;;;;;;3.58;1.30;;;;;;;25.23;34.82;97674.03;10488455;28;20036;-83
2022/06/06 18:20:34;;;;;;;2.53;0.60;;;;;;;25.09;34.43;97674.63;10483266;28;20044;-85
2022/06/06 18:26:18;;;;;;;1.83;0.63;;;;;;;25.01;34.66;97663.09;10456186;28;20040;-82
2022/06/06 18:32:00;;;;;;;3.05;0.55;;;;;;;24.93;34.90;97676.56;10472103;28;20044;-83
2022/06/06 18:37:25;;;;;;;3.15;0.80;;;;;;;24.79;35.28;97683.56;10471973;28;20055;-82
2022/06/06 18:42:46;;;;;;;1.38;0.60;;;;;;;24.64;35.79;97684.84;10469651;28;20048;-80
2022/06/06 18:48:15;;;;;;;2.25;0.60;;;;;;;24.46;36.85;97679.63;10454965;28;20063;-84
2022/06/06 18:53:44;;;;;;;2.70;0.70;;;;;;;24.32;36.82;97684.44;10468466;28;20106;-83
2022/06/06 18:59:15;;;;;;;2.63;0.85;;;;;;;24.21;36.70;97684.28;10455462;28;20457;-85
2022/06/06 19:04:37;;;;;;;1.67;0.82;;;;;;;24.15;37.30;97686.34;10469824;28;20044;-84
2022/06/06 19:10:06;;;;;;;1.70;0.68;;;;;;;24.02;38.08;97690.44;10468792;28;20149;-85
2022/06/06 19:15:35;;;;;;;1.33;0.80;;;;;;;23.85;37.89;97692.38;10476515;28;20036;-81
2022/06/06 19:21:03;;;;;;;1.52;0.80;;;;;;;23.65;38.17;97693.50;10523714;28;20401;-81
2022/06/06 19:26:31;;;;;;;2.97;0.73;;;;;;;23.55;38.67;97699.03;10523823;28;20036;-82
2022/06/06 19:31:57;;;;;;;4.07;1.10;;;;;;;23.45;38.97;97698.88;10496675;28;20040;-92
2022/06/06 19:37:23;;;;;;;2.63;1.00;;;;;;;23.39;39.30;97708.00;10514782;28;20470;-96
2022/06/06 19:42:54;;;;;;;3.28;0.70;;;;;;;23.31;39.57;97702.19;10504293;28;20044;-93
2022/06/06 19:48:25;;;;;;;2.63;0.70;;;;;;;23.28;39.85;97700.72;10517161;28;20040;-92
2022/06/06 19:53:59;;;;;;;2.25;0.90;;;;;;;23.23;40.08;97698.47;10524034;28;20036;-93
2022/06/06 19:59:23;;;;;;;4.93;0.60;;;;;;;23.19;40.17;97689.88;10521033;28;20402;-91
2022/06/06 20:04:49;;;;;;;1.95;0.63;;;;;;;23.18;40.00;97682.75;10499975;28;20059;-92
2022/06/06 20:10:10;;;;;;;2.58;0.70;;;;;;;23.13;40.18;97694.06;10511894;28;20040;-90
2022/06/06 20:15:33;;;;;;;2.67;0.90;;;;;;;23.08;40.15;97706.78;10524442;28;20145;-92
2022/06/06 20:20:54;;;;;;;;;;;;;;;23.05;40.71;97713.09;10496487;28;20048;-94
2022/06/06 20:26:15;;;;;;;1.25;0.70;;;;;;;23.02;40.62;97712.34;10515958;28;19953;-93
2022/06/06 20:32:11;;;;;;;1.95;1.13;;;;;;;22.96;40.41;97706.56;10528943;28;20049;-93
2022/06/06 20:37:33;;;;;;;2.38;0.90;;;;;;;22.87;41.07;97704.97;10516882;28;20051;-94
2022/06/06 20:42:54;;;;;;;2.15;1.00;;;;;;;22.81;40.97;97699.16;10502012;28;20071;-94
2022/06/06 20:48:23;;;;;;;3.05;1.33;;;;;;;22.75;41.19;97710.41;10501530;28;20043;-92
2022/06/06 20:53:46;;;;;;;2.38;1.00;;;;;;;22.71;41.33;97716.03;10516909;28;20040;-91
2022/06/06 20:59:22;;;;;;;;;;;;;;;22.66;41.96;97711.66;10531162;28;20437;-92
2022/06/06 21:04:45;;;;;;;3.92;1.38;;;;;;;22.63;41.63;97713.00;10516277;28;19920;-95
2022/06/06 21:10:11;;;;;;;2.65;0.90;;;;;;;22.59;41.78;97712.94;10516485;28;20051;-94
2022/06/06 21:15:33;;;;;;;3.83;0.80;;;;;;;22.56;41.82;97704.34;10515499;28;20544;-93
2022/06/06 21:20:54;;;;;;;2.23;1.00;;;;;;;22.51;42.08;97713.50;10501847;28;20040;-93
2022/06/06 21:26:15;;;;;;;4.45;1.00;;;;;;;22.49;42.26;97705.66;10515294;28;20036;-93
2022/06/06 21:31:36;;;;;;;3.58;1.10;;;;;;;22.46;42.16;97720.50;10515436;28;20071;-94
2022/06/06 21:36:57;;;;;;;1.75;0.80;;;;;;;22.38;42.50;97726.00;10501269;28;20417;-94
2022/06/06 21:42:18;;;;;;;3.85;0.88;;;;;;;22.33;42.79;97704.59;10501377;28;20044;-94
2022/06/06 21:47:39;;;;;;;1.65;0.70;;;;;;;22.23;42.80;97705.09;10501714;28;20047;-93
2022/06/06 21:53:00;;;;;;;1.30;0.90;;;;;;;22.21;42.41;97707.91;10487268;28;20062;-93
2022/06/06 21:58:23;;;;;;;2.65;0.90;;;;;;;22.14;43.13;97700.66;10500605;28;20043;-93
2022/06/06 22:03:44;;;;;;;2.45;1.17;;;;;;;22.08;43.29;97700.50;10502171;28;20040;-93
2022/06/06 22:09:06;;;;;;;1.90;0.82;;;;;;;22.06;43.24;97706.84;10502595;28;20040;-93
2022/06/06 22:14:29;;;;;;;1.30;0.90;;;;;;;22.03;43.55;97699.69;10538212;28;20040;-92
2022/06/06 22:19:49;;;;;;;2.13;0.90;;;;;;;22.00;43.61;97695.34;10501483;28;20051;-93
2022/06/06 22:25:18;;;;;;;1.98;0.85;;;;;;;21.98;43.38;97689.63;10489476;28;20286;-93
2022/06/06 22:30:39;;;;;;;3.65;1.15;;;;;;;21.95;43.82;97693.81;10499411;28;20533;-92
2022/06/06 22:35:59;;;;;;;2.80;0.80;;;;;;;21.90;43.55;97687.31;10499409;28;20047;-94
2022/06/06 22:41:20;;;;;;;2.13;0.75;;;;;;;21.86;43.71;97684.38;10513233;28;20047;-94
2022/06/06 22:46:44;;;;;;;1.30;0.85;;;;;;;21.78;44.07;97684.22;10513524;28;20059;-93
2022/06/06 22:52:05;;;;;;;1.70;0.93;;;;;;;21.73;44.38;97688.38;10513453;28;20051;-93
2022/06/06 22:57:26;;;;;;;3.05;1.23;;;;;;;21.68;44.55;97693.22;10468869;28;20117;-94
2022/06/06 23:02:46;;;;;;;2.28;1.02;;;;;;;21.65;44.74;97688.19;10499028;28;20043;-94
2022/06/06 23:08:08;;;;;;;3.53;1.23;;;;;;;21.66;44.99;97690.34;10499080;28;20044;-94
2022/06/06 23:13:28;;;;;;;1.35;0.90;;;;;;;21.65;44.89;97683.22;10490736;28;20063;-93
2022/06/06 23:18:49;;;;;;;2.22;0.90;;;;;;;21.63;45.26;97674.66;10490299;28;20080;-93
2022/06/06 23:24:09;;;;;;;4.07;1.00;;;;;;;21.63;45.50;97671.09;10492852;28;20048;-93
2022/06/06 23:29:30;;;;;;;1.85;1.08;;;;;;;21.54;45.48;97677.97;10506747;28;20434;-93
2022/06/06 23:34:51;;;;;;;1.95;1.00;;;;;;;21.41;45.58;97660.63;10505991;28;20044;-93
2022/06/06 23:40:13;;;;;;;4.95;1.30;;;;;;;21.35;45.95;97674.72;10520303;28;20059;-93
2022/06/06 23:51:16;;;;;;;3.08;1.45;;;;;;;21.32;46.33;97663.97;10511316;28;20052;-93
2022/06/06 23:56:40;;;;;;;1.65;1.27;;;;;;;21.35;46.77;97662.63;10533572;28;20044;-92
